LTCC Airport Information

Runway Information
Runway 16 Length 11644 ft width 148 ft
Elevation 2251 ft Threshold 0 ft Heading 163
Runway 34 Length 11644 ft Width 148 ft
Elevation 2176 ft Threshold 0 ft Heading 343
Airport Frequencies
Type ACP Name MAC ALCE Frequency 123.2 MHZ
Type APP Name APP Frequency 122.1 MHZ
Type ATIS Name ATIS Frequency 122.425 MHZ
Type GND Name GND Frequency 122.1 MHZ
Type TWR Name TWR Frequency 118.1 MHZ
Airport Navaids
Type TACAN Name Diyarbakir Frequency 110000 KHZ
Type VOR-DME Name Diyarbakir Frequency 109400 KHZ
Type NDB Name Diyarbakir Frequency 330 KHZ
Airport Weather Information & NOTAM
ADDS - METARS form results

(2006 UTC 22 July 2018)
 
METAR text: LTCC 221950Z 35010KT CAVOK 30/09 Q1002 NOSIG RMK RWY16 36010KT
Conditions at: LTCC (DIYARBAKIR(CIV/A, TR) observed 1950 UTC 22 July 2018
Temperature: 30.0°C (86°F)
Dewpoint: 9.0°C (48°F) [RH = 27%]
Pressure (altimeter): 29.59 inches Hg (1002.0 mb)
Winds: from the N (350 degrees) at 12 MPH (10 knots; 5.2 m/s)
Visibility: 6 or more miles (10+ km)
Ceiling: ceiling and visibility are OK
Clouds: unknown
Weather: no significant weather observed at this time

METAR text: LTCC 221920Z 34007KT CAVOK 29/08 Q1002 NOSIG RMK RWY16 36010KT
Conditions at: LTCC (DIYARBAKIR(CIV/A, TR) observed 1920 UTC 22 July 2018
Temperature: 29.0°C (84°F)
Dewpoint: 8.0°C (46°F) [RH = 27%]
Pressure (altimeter): 29.59 inches Hg (1002.0 mb)
Winds: from the NNW (340 degrees) at 8 MPH (7 knots; 3.6 m/s)
Visibility: 6 or more miles (10+ km)
Ceiling: ceiling and visibility are OK
Clouds: unknown
Weather: no significant weather observed at this time